sensor_id;sensor_type;location;lat;lon;timestamp;pressure;altitude;pressure_sealevel;temperature;humidity
60974;BME280;46846;51.528;5.076;2023-08-07T00:01:01;100866.38;;;13.88;68.33
60974;BME280;46846;51.528;5.076;2023-08-07T00:03:27;100873.38;;;13.90;68.43
60974;BME280;46846;51.528;5.076;2023-08-07T00:05:52;100869.16;;;13.85;68.69
60974;BME280;46846;51.528;5.076;2023-08-07T00:08:17;100871.06;;;13.83;68.52
60974;BME280;46846;51.528;5.076;2023-08-07T00:10:43;100873.22;;;13.74;68.75
60974;BME280;46846;51.528;5.076;2023-08-07T00:13:08;100864.03;;;13.80;68.76
60974;BME280;46846;51.528;5.076;2023-08-07T00:15:34;100869.16;;;13.85;68.52
60974;BME280;46846;51.528;5.076;2023-08-07T00:18:00;100865.47;;;13.87;68.38
60974;BME280;46846;51.528;5.076;2023-08-07T00:20:25;100863.25;;;13.78;68.37
60974;BME280;46846;51.528;5.076;2023-08-07T00:22:51;100864.63;;;13.87;68.04
60974;BME280;46846;51.528;5.076;2023-08-07T00:25:16;100867.59;;;13.80;68.45
60974;BME280;46846;51.528;5.076;2023-08-07T00:27:42;100866.72;;;13.80;68.15
60974;BME280;46846;51.528;5.076;2023-08-07T00:30:07;100863.13;;;13.81;68.34
60974;BME280;46846;51.528;5.076;2023-08-07T00:32:33;100868.31;;;13.84;68.02
60974;BME280;46846;51.528;5.076;2023-08-07T00:34:58;100868.03;;;13.90;67.98
60974;BME280;46846;51.528;5.076;2023-08-07T00:37:24;100859.06;;;13.91;67.89
60974;BME280;46846;51.528;5.076;2023-08-07T00:39:49;100871.72;;;13.88;68.05
60974;BME280;46846;51.528;5.076;2023-08-07T00:42:14;100874.47;;;13.86;68.26
60974;BME280;46846;51.528;5.076;2023-08-07T00:44:40;100870.22;;;13.82;68.15
60974;BME280;46846;51.528;5.076;2023-08-07T00:47:06;100871.00;;;13.84;68.07
60974;BME280;46846;51.528;5.076;2023-08-07T00:49:31;100879.47;;;13.75;68.21
60974;BME280;46846;51.528;5.076;2023-08-07T00:51:57;100880.03;;;13.81;68.29
60974;BME280;46846;51.528;5.076;2023-08-07T00:54:25;100871.94;;;13.83;68.10
60974;BME280;46846;51.528;5.076;2023-08-07T00:56:50;100877.06;;;13.88;67.61
60974;BME280;46846;51.528;5.076;2023-08-07T00:59:16;100876.28;;;13.86;67.86
60974;BME280;46846;51.528;5.076;2023-08-07T01:01:43;100877.19;;;13.85;67.96
60974;BME280;46846;51.528;5.076;2023-08-07T01:04:09;100886.97;;;13.86;67.78
60974;BME280;46846;51.528;5.076;2023-08-07T01:06:34;100879.03;;;13.65;68.08
60974;BME280;46846;51.528;5.076;2023-08-07T01:08:59;100882.94;;;13.77;67.88
60974;BME280;46846;51.528;5.076;2023-08-07T01:11:48;100882.53;;;13.65;68.23
60974;BME280;46846;51.528;5.076;2023-08-07T01:14:28;100880.19;;;13.59;68.43
60974;BME280;46846;51.528;5.076;2023-08-07T01:17:11;100881.97;;;13.59;68.44
60974;BME280;46846;51.528;5.076;2023-08-07T01:19:37;100890.16;;;13.56;68.30
60974;BME280;46846;51.528;5.076;2023-08-07T01:22:16;100892.41;;;13.65;68.39
60974;BME280;46846;51.528;5.076;2023-08-07T01:24:49;100893.84;;;13.53;68.45
60974;BME280;46846;51.528;5.076;2023-08-07T01:35:05;100920.00;;;13.45;68.58
60974;BME280;46846;51.528;5.076;2023-08-07T01:37:34;100910.22;;;13.45;68.51
60974;BME280;46846;51.528;5.076;2023-08-07T01:40:02;100903.53;;;13.56;68.37
60974;BME280;46846;51.528;5.076;2023-08-07T01:42:31;100907.09;;;13.54;68.63
60974;BME280;46846;51.528;5.076;2023-08-07T01:44:57;100907.94;;;13.57;68.33
60974;BME280;46846;51.528;5.076;2023-08-07T01:47:23;100904.03;;;13.64;68.19
60974;BME280;46846;51.528;5.076;2023-08-07T01:49:48;100899.41;;;13.67;68.15
60974;BME280;46846;51.528;5.076;2023-08-07T01:52:13;100902.00;;;13.69;67.96
60974;BME280;46846;51.528;5.076;2023-08-07T01:54:39;100896.81;;;13.66;67.80
60974;BME280;46846;51.528;5.076;2023-08-07T01:57:05;100898.41;;;13.70;67.94
60974;BME280;46846;51.528;5.076;2023-08-07T01:59:30;100891.22;;;13.71;68.17
60974;BME280;46846;51.528;5.076;2023-08-07T02:01:56;100893.06;;;13.70;68.03
60974;BME280;46846;51.528;5.076;2023-08-07T02:04:21;100894.91;;;13.68;67.96
60974;BME280;46846;51.528;5.076;2023-08-07T02:06:46;100894.78;;;13.71;68.14
60974;BME280;46846;51.528;5.076;2023-08-07T02:09:12;100899.19;;;13.72;67.77
60974;BME280;46846;51.528;5.076;2023-08-07T02:11:37;100901.72;;;13.75;67.81
60974;BME280;46846;51.528;5.076;2023-08-07T02:14:03;100898.97;;;13.77;67.48
60974;BME280;46846;51.528;5.076;2023-08-07T02:16:28;100897.53;;;13.70;67.35
60974;BME280;46846;51.528;5.076;2023-08-07T02:18:54;100902.31;;;13.63;68.03
60974;BME280;46846;51.528;5.076;2023-08-07T02:21:20;100904.03;;;13.64;68.11
60974;BME280;46846;51.528;5.076;2023-08-07T02:23:45;100910.16;;;13.66;67.97
60974;BME280;46846;51.528;5.076;2023-08-07T02:26:11;100902.88;;;13.70;67.69
60974;BME280;46846;51.528;5.076;2023-08-07T02:28:36;100914.84;;;13.61;67.84
60974;BME280;46846;51.528;5.076;2023-08-07T02:31:02;100899.75;;;13.60;67.83
60974;BME280;46846;51.528;5.076;2023-08-07T02:33:27;100906.75;;;13.62;67.95
60974;BME280;46846;51.528;5.076;2023-08-07T02:35:55;100906.63;;;13.65;67.87
60974;BME280;46846;51.528;5.076;2023-08-07T02:38:20;100904.75;;;13.67;68.02
60974;BME280;46846;51.528;5.076;2023-08-07T02:40:46;100898.41;;;13.70;67.58
60974;BME280;46846;51.528;5.076;2023-08-07T02:43:11;100910.84;;;13.71;67.44
60974;BME280;46846;51.528;5.076;2023-08-07T02:45:37;100904.66;;;13.69;67.87
60974;BME280;46846;51.528;5.076;2023-08-07T02:48:02;100899.41;;;13.67;67.90
60974;BME280;46846;51.528;5.076;2023-08-07T02:50:28;100902.09;;;13.67;67.78
60974;BME280;46846;51.528;5.076;2023-08-07T02:52:57;100909.28;;;13.65;67.65
60974;BME280;46846;51.528;5.076;2023-08-07T02:55:23;100905.59;;;13.68;67.68
60974;BME280;46846;51.528;5.076;2023-08-07T02:57:48;100906.50;;;13.69;67.46
60974;BME280;46846;51.528;5.076;2023-08-07T03:00:14;100905.81;;;13.63;67.55
60974;BME280;46846;51.528;5.076;2023-08-07T03:02:39;100905.16;;;13.58;67.77
60974;BME280;46846;51.528;5.076;2023-08-07T03:05:04;100911.66;;;13.52;67.75
60974;BME280;46846;51.528;5.076;2023-08-07T03:07:30;100900.69;;;13.59;67.76
60974;BME280;46846;51.528;5.076;2023-08-07T03:09:55;100904.44;;;13.54;67.70
60974;BME280;46846;51.528;5.076;2023-08-07T03:12:21;100908.88;;;13.56;67.76
60974;BME280;46846;51.528;5.076;2023-08-07T03:14:46;100901.56;;;13.59;67.31
60974;BME280;46846;51.528;5.076;2023-08-07T03:17:12;100904.97;;;13.63;67.51
60974;BME280;46846;51.528;5.076;2023-08-07T03:19:37;100898.25;;;13.54;67.33
60974;BME280;46846;51.528;5.076;2023-08-07T03:22:03;100895.41;;;13.57;67.40
60974;BME280;46846;51.528;5.076;2023-08-07T03:24:28;100903.38;;;13.59;67.46
60974;BME280;46846;51.528;5.076;2023-08-07T03:26:53;100899.91;;;13.57;67.71
60974;BME280;46846;51.528;5.076;2023-08-07T03:29:19;100895.34;;;13.59;67.63
60974;BME280;46846;51.528;5.076;2023-08-07T03:31:44;100896.13;;;13.61;67.47
60974;BME280;46846;51.528;5.076;2023-08-07T03:34:10;100899.25;;;13.51;67.58
60974;BME280;46846;51.528;5.076;2023-08-07T03:36:35;100902.41;;;13.60;67.23
60974;BME280;46846;51.528;5.076;2023-08-07T03:39:01;100898.31;;;13.52;67.57
60974;BME280;46846;51.528;5.076;2023-08-07T03:41:26;100907.41;;;13.48;67.58
60974;BME280;46846;51.528;5.076;2023-08-07T03:43:53;100909.53;;;13.40;67.96
60974;BME280;46846;51.528;5.076;2023-08-07T03:46:18;100905.78;;;13.44;67.86
60974;BME280;46846;51.528;5.076;2023-08-07T03:48:44;100910.88;;;13.50;67.65
60974;BME280;46846;51.528;5.076;2023-08-07T03:51:09;100903.91;;;13.46;67.41
60974;BME280;46846;51.528;5.076;2023-08-07T03:53:35;100906.47;;;13.49;67.40
60974;BME280;46846;51.528;5.076;2023-08-07T03:56:01;100914.28;;;13.54;67.57
60974;BME280;46846;51.528;5.076;2023-08-07T03:58:26;100917.94;;;13.51;67.56
60974;BME280;46846;51.528;5.076;2023-08-07T04:00:51;100916.28;;;13.49;67.44
60974;BME280;46846;51.528;5.076;2023-08-07T04:03:18;100925.75;;;13.35;68.07
60974;BME280;46846;51.528;5.076;2023-08-07T04:05:43;100919.63;;;13.33;67.95
60974;BME280;46846;51.528;5.076;2023-08-07T04:08:09;100921.50;;;13.31;67.93
60974;BME280;46846;51.528;5.076;2023-08-07T04:10:34;100920.97;;;13.23;68.26
60974;BME280;46846;51.528;5.076;2023-08-07T04:13:00;100921.34;;;13.34;67.72
60974;BME280;46846;51.528;5.076;2023-08-07T04:15:25;100923.81;;;13.39;67.66
60974;BME280;46846;51.528;5.076;2023-08-07T04:17:50;100922.97;;;13.38;67.77
60974;BME280;46846;51.528;5.076;2023-08-07T04:20:16;100929.97;;;13.41;67.46
60974;BME280;46846;51.528;5.076;2023-08-07T04:22:42;100938.94;;;13.40;67.76
60974;BME280;46846;51.528;5.076;2023-08-07T04:25:07;100940.53;;;13.23;68.18
60974;BME280;46846;51.528;5.076;2023-08-07T04:27:33;100930.94;;;13.19;68.21
60974;BME280;46846;51.528;5.076;2023-08-07T04:29:58;100937.84;;;13.23;68.29
60974;BME280;46846;51.528;5.076;2023-08-07T04:32:24;100943.19;;;13.23;68.23
60974;BME280;46846;51.528;5.076;2023-08-07T04:34:49;100942.41;;;13.21;68.00
60974;BME280;46846;51.528;5.076;2023-08-07T04:37:14;100941.94;;;13.32;67.92
60974;BME280;46846;51.528;5.076;2023-08-07T04:39:40;100936.81;;;13.27;68.18
60974;BME280;46846;51.528;5.076;2023-08-07T04:42:05;100943.34;;;13.20;68.28
60974;BME280;46846;51.528;5.076;2023-08-07T04:44:30;100942.25;;;13.24;68.08
60974;BME280;46846;51.528;5.076;2023-08-07T04:46:56;100936.13;;;13.22;68.19
60974;BME280;46846;51.528;5.076;2023-08-07T04:49:21;100939.53;;;13.26;68.23
60974;BME280;46846;51.528;5.076;2023-08-07T04:51:47;100932.66;;;13.20;68.03
60974;BME280;46846;51.528;5.076;2023-08-07T04:54:12;100937.84;;;13.23;68.25
60974;BME280;46846;51.528;5.076;2023-08-07T04:56:38;100940.69;;;13.20;68.37
60974;BME280;46846;51.528;5.076;2023-08-07T04:59:03;100942.25;;;13.24;68.15
60974;BME280;46846;51.528;5.076;2023-08-07T05:01:28;100942.22;;;13.26;68.30
60974;BME280;46846;51.528;5.076;2023-08-07T05:03:54;100952.03;;;13.25;68.00
60974;BME280;46846;51.528;5.076;2023-08-07T05:06:19;100954.56;;;13.29;68.16
60974;BME280;46846;51.528;5.076;2023-08-07T05:08:45;100955.34;;;13.31;68.17
60974;BME280;46846;51.528;5.076;2023-08-07T05:11:10;100951.16;;;13.25;68.15
60974;BME280;46846;51.528;5.076;2023-08-07T05:13:36;100948.44;;;13.26;68.04
60974;BME280;46846;51.528;5.076;2023-08-07T05:16:01;100952.94;;;13.24;67.90
60974;BME280;46846;51.528;5.076;2023-08-07T05:18:27;100949.38;;;13.25;68.10
60974;BME280;46846;51.528;5.076;2023-08-07T05:20:52;100959.22;;;13.23;68.17
60974;BME280;46846;51.528;5.076;2023-08-07T05:23:17;100959.38;;;13.20;68.35
60974;BME280;46846;51.528;5.076;2023-08-07T05:25:47;100955.56;;;13.26;67.91
60974;BME280;46846;51.528;5.076;2023-08-07T05:28:12;100955.50;;;13.27;67.92
60974;BME280;46846;51.528;5.076;2023-08-07T05:30:38;100957.38;;;13.25;68.05
60974;BME280;46846;51.528;5.076;2023-08-07T05:33:03;100959.03;;;13.28;68.30
60974;BME280;46846;51.528;5.076;2023-08-07T05:35:28;100965.09;;;13.32;67.92
60974;BME280;46846;51.528;5.076;2023-08-07T05:37:54;100963.47;;;13.29;68.44
60974;BME280;46846;51.528;5.076;2023-08-07T05:40:19;100962.59;;;13.29;67.99
60974;BME280;46846;51.528;5.076;2023-08-07T05:42:45;100971.19;;;13.35;68.19
60974;BME280;46846;51.528;5.076;2023-08-07T05:45:10;100984.63;;;13.34;67.70
60974;BME280;46846;51.528;5.076;2023-08-07T05:47:35;100981.44;;;13.25;68.28
60974;BME280;46846;51.528;5.076;2023-08-07T05:50:01;100982.97;;;13.31;67.86
60974;BME280;46846;51.528;5.076;2023-08-07T05:52:26;100984.75;;;13.31;68.13
60974;BME280;46846;51.528;5.076;2023-08-07T05:54:52;100994.50;;;13.32;68.09
60974;BME280;46846;51.528;5.076;2023-08-07T05:57:18;100993.59;;;13.33;67.87
60974;BME280;46846;51.528;5.076;2023-08-07T05:59:43;101006.81;;;13.36;67.93
60974;BME280;46846;51.528;5.076;2023-08-07T06:02:09;100992.66;;;13.34;67.79
60974;BME280;46846;51.528;5.076;2023-08-07T06:04:36;101001.31;;;13.39;67.62
60974;BME280;46846;51.528;5.076;2023-08-07T06:07:01;101002.25;;;13.38;67.44
60974;BME280;46846;51.528;5.076;2023-08-07T06:09:27;101001.16;;;13.44;67.34
60974;BME280;46846;51.528;5.076;2023-08-07T06:11:52;101002.16;;;13.41;67.61
60974;BME280;46846;51.528;5.076;2023-08-07T06:14:18;101002.94;;;13.43;67.22
60974;BME280;46846;51.528;5.076;2023-08-07T06:16:43;101007.88;;;13.32;67.54
60974;BME280;46846;51.528;5.076;2023-08-07T06:19:09;101006.66;;;13.39;67.55
60974;BME280;46846;51.528;5.076;2023-08-07T06:21:34;101008.06;;;13.27;67.74
60974;BME280;46846;51.528;5.076;2023-08-07T06:23:59;101010.69;;;13.29;67.76
60974;BME280;46846;51.528;5.076;2023-08-07T06:26:25;101017.03;;;13.26;67.73
60974;BME280;46846;51.528;5.076;2023-08-07T06:28:50;101014.88;;;13.34;67.79
60974;BME280;46846;51.528;5.076;2023-08-07T06:31:16;101014.97;;;13.33;67.89
60974;BME280;46846;51.528;5.076;2023-08-07T06:33:41;101022.56;;;13.21;67.93
60974;BME280;46846;51.528;5.076;2023-08-07T06:36:07;101018.91;;;13.24;67.93
60974;BME280;46846;51.528;5.076;2023-08-07T06:38:33;101014.56;;;13.21;67.65
60974;BME280;46846;51.528;5.076;2023-08-07T06:40:59;101016.28;;;13.22;68.15
60974;BME280;46846;51.528;5.076;2023-08-07T06:43:24;101022.88;;;13.13;68.12
60974;BME280;46846;51.528;5.076;2023-08-07T06:45:51;101022.88;;;13.13;68.12
60974;BME280;46846;51.528;5.076;2023-08-07T06:48:17;101023.63;;;13.17;67.89
60974;BME280;46846;51.528;5.076;2023-08-07T06:50:42;101022.63;;;13.20;67.76
60974;BME280;46846;51.528;5.076;2023-08-07T06:53:08;101023.81;;;13.12;67.92
60974;BME280;46846;51.528;5.076;2023-08-07T06:55:33;101024.84;;;13.10;67.99
60974;BME280;46846;51.528;5.076;2023-08-07T06:57:59;101031.09;;;13.09;68.08
60974;BME280;46846;51.528;5.076;2023-08-07T07:00:25;101032.88;;;13.10;68.10
60974;BME280;46846;51.528;5.076;2023-08-07T07:02:50;101031.03;;;13.10;67.98
60974;BME280;46846;51.528;5.076;2023-08-07T07:05:15;101034.41;;;13.16;67.61
60974;BME280;46846;51.528;5.076;2023-08-07T07:07:41;101038.91;;;13.13;67.85
60974;BME280;46846;51.528;5.076;2023-08-07T07:10:07;101043.75;;;13.26;67.63
60974;BME280;46846;51.528;5.076;2023-08-07T07:12:33;101036.41;;;13.31;67.47
60974;BME280;46846;51.528;5.076;2023-08-07T07:14:58;101038.28;;;13.29;67.67
60974;BME280;46846;51.528;5.076;2023-08-07T07:17:23;101045.75;;;13.21;67.64
60974;BME280;46846;51.528;5.076;2023-08-07T07:19:49;101043.00;;;13.22;67.38
60974;BME280;46846;51.528;5.076;2023-08-07T07:22:14;101057.44;;;13.18;67.67
60974;BME280;46846;51.528;5.076;2023-08-07T07:24:39;101051.38;;;13.15;67.60
60974;BME280;46846;51.528;5.076;2023-08-07T07:27:05;101052.97;;;13.19;67.67
60974;BME280;46846;51.528;5.076;2023-08-07T07:29:31;101058.19;;;13.22;67.64
60974;BME280;46846;51.528;5.076;2023-08-07T07:31:56;101059.97;;;13.21;67.72
60974;BME280;46846;51.528;5.076;2023-08-07T07:34:22;101060.03;;;13.20;67.74
60974;BME280;46846;51.528;5.076;2023-08-07T07:36:47;101056.44;;;13.21;67.47
60974;BME280;46846;51.528;5.076;2023-08-07T07:39:13;101053.59;;;13.25;66.91
60974;BME280;46846;51.528;5.076;2023-08-07T07:41:38;101062.66;;;13.21;67.18
60974;BME280;46846;51.528;5.076;2023-08-07T07:44:04;101060.91;;;13.20;67.44
60974;BME280;46846;51.528;5.076;2023-08-07T07:46:29;101060.47;;;13.31;67.22
60974;BME280;46846;51.528;5.076;2023-08-07T07:48:57;101065.13;;;13.26;67.53
60974;BME280;46846;51.528;5.076;2023-08-07T07:51:22;101066.50;;;13.14;68.10
60974;BME280;46846;51.528;5.076;2023-08-07T07:53:48;101067.31;;;13.16;67.46
60974;BME280;46846;51.528;5.076;2023-08-07T07:56:13;101064.69;;;13.37;67.40
60974;BME280;46846;51.528;5.076;2023-08-07T07:58:39;101065.13;;;13.48;66.79
60974;BME280;46846;51.528;5.076;2023-08-07T08:01:06;101073.25;;;13.45;66.95
60974;BME280;46846;51.528;5.076;2023-08-07T08:03:32;101074.78;;;13.51;66.69
60974;BME280;46846;51.528;5.076;2023-08-07T08:05:58;101092.59;;;13.52;67.02
60974;BME280;46846;51.528;5.076;2023-08-07T08:08:23;101086.31;;;13.53;66.86
60974;BME280;46846;51.528;5.076;2023-08-07T08:10:48;101090.97;;;13.48;67.61
60974;BME280;46846;51.528;5.076;2023-08-07T08:13:14;101096.88;;;13.56;67.43
60974;BME280;46846;51.528;5.076;2023-08-07T08:15:40;101100.41;;;13.57;67.81
60974;BME280;46846;51.528;5.076;2023-08-07T08:18:06;101099.13;;;13.65;67.44
60974;BME280;46846;51.528;5.076;2023-08-07T08:20:31;101099.81;;;13.71;67.38
60974;BME280;46846;51.528;5.076;2023-08-07T08:22:57;101107.78;;;13.72;67.40
60974;BME280;46846;51.528;5.076;2023-08-07T08:25:23;101104.00;;;13.76;67.27
60974;BME280;46846;51.528;5.076;2023-08-07T08:27:48;101107.22;;;13.85;67.39
60974;BME280;46846;51.528;5.076;2023-08-07T08:30:16;101104.44;;;13.88;66.98
60974;BME280;46846;51.528;5.076;2023-08-07T08:32:43;101116.81;;;13.90;67.49
60974;BME280;46846;51.528;5.076;2023-08-07T08:35:08;101118.53;;;13.91;67.08
60974;BME280;46846;51.528;5.076;2023-08-07T08:37:34;101122.88;;;13.94;67.32
60974;BME280;46846;51.528;5.076;2023-08-07T08:39:59;101121.41;;;14.07;66.66
60974;BME280;46846;51.528;5.076;2023-08-07T08:42:24;101116.69;;;14.13;66.13
60974;BME280;46846;51.528;5.076;2023-08-07T08:44:57;101109.34;;;14.18;66.13
60974;BME280;46846;51.528;5.076;2023-08-07T08:47:25;101113.41;;;14.27;66.12
60974;BME280;46846;51.528;5.076;2023-08-07T08:50:00;101118.47;;;14.33;65.90
60974;BME280;46846;51.528;5.076;2023-08-07T08:52:28;101124.63;;;14.35;66.20
60974;BME280;46846;51.528;5.076;2023-08-07T08:54:54;101124.38;;;14.41;66.86
60974;BME280;46846;51.528;5.076;2023-08-07T08:57:21;101123.25;;;14.45;67.04
60974;BME280;46846;51.528;5.076;2023-08-07T08:59:47;101129.41;;;14.47;66.32
60974;BME280;46846;51.528;5.076;2023-08-07T09:02:12;101125.72;;;14.50;66.59
60974;BME280;46846;51.528;5.076;2023-08-07T09:04:38;101130.00;;;14.54;65.74
60974;BME280;46846;51.528;5.076;2023-08-07T09:07:04;101121.69;;;14.60;65.26
60974;BME280;46846;51.528;5.076;2023-08-07T09:09:30;101124.78;;;14.70;65.18
60974;BME280;46846;51.528;5.076;2023-08-07T09:11:58;101124.53;;;14.76;65.07
60974;BME280;46846;51.528;5.076;2023-08-07T09:14:27;101138.75;;;14.79;64.67
60974;BME280;46846;51.528;5.076;2023-08-07T09:16:58;101128.75;;;14.82;65.21
60974;BME280;46846;51.528;5.076;2023-08-07T09:19:25;101144.44;;;14.90;66.03
60974;BME280;46846;51.528;5.076;2023-08-07T09:21:51;101143.38;;;14.94;65.05
60974;BME280;46846;51.528;5.076;2023-08-07T09:24:16;101150.38;;;14.97;64.61
60974;BME280;46846;51.528;5.076;2023-08-07T09:26:44;101152.03;;;14.99;64.27
60974;BME280;46846;51.528;5.076;2023-08-07T09:29:09;101147.25;;;15.06;64.57
60974;BME280;46846;51.528;5.076;2023-08-07T09:31:37;101146.16;;;15.10;64.21
60974;BME280;46846;51.528;5.076;2023-08-07T09:34:03;101139.47;;;15.19;64.43
60974;BME280;46846;51.528;5.076;2023-08-07T09:36:31;101147.28;;;15.24;64.35
60974;BME280;46846;51.528;5.076;2023-08-07T09:39:00;101156.00;;;15.29;65.29
60974;BME280;46846;51.528;5.076;2023-08-07T09:41:28;101160.81;;;15.40;65.49
60974;BME280;46846;51.528;5.076;2023-08-07T09:43:54;101153.50;;;15.43;65.08
60974;BME280;46846;51.528;5.076;2023-08-07T09:46:20;101154.28;;;15.45;65.02
60974;BME280;46846;51.528;5.076;2023-08-07T09:48:45;101155.00;;;15.49;64.93
60974;BME280;46846;51.528;5.076;2023-08-07T09:51:11;101150.97;;;15.58;63.95
60974;BME280;46846;51.528;5.076;2023-08-07T09:53:37;101158.88;;;15.61;64.65
60974;BME280;46846;51.528;5.076;2023-08-07T09:56:02;101154.91;;;15.68;64.97
60974;BME280;46846;51.528;5.076;2023-08-07T09:58:28;101148.22;;;15.77;64.30
60974;BME280;46846;51.528;5.076;2023-08-07T10:00:54;101153.50;;;15.79;65.54
60974;BME280;46846;51.528;5.076;2023-08-07T10:03:25;101157.53;;;15.88;65.11
60974;BME280;46846;51.528;5.076;2023-08-07T10:05:51;101166.31;;;15.91;65.25
60974;BME280;46846;51.528;5.076;2023-08-07T10:08:16;101178.78;;;15.92;65.57
60974;BME280;46846;51.528;5.076;2023-08-07T10:10:42;101167.09;;;15.93;64.87
60974;BME280;46846;51.528;5.076;2023-08-07T10:13:09;101163.97;;;16.03;64.49
60974;BME280;46846;51.528;5.076;2023-08-07T10:15:37;101168.84;;;16.12;64.13
60974;BME280;46846;51.528;5.076;2023-08-07T10:18:05;101177.75;;;16.12;64.80
60974;BME280;46846;51.528;5.076;2023-08-07T10:20:31;101172.28;;;16.14;64.72
60974;BME280;46846;51.528;5.076;2023-08-07T10:23:00;101167.56;;;16.19;64.61
60974;BME280;46846;51.528;5.076;2023-08-07T10:25:28;101168.03;;;16.27;64.42
60974;BME280;46846;51.528;5.076;2023-08-07T10:27:55;101177.88;;;16.27;64.80
60974;BME280;46846;51.528;5.076;2023-08-07T10:30:23;101180.31;;;16.32;63.88
60974;BME280;46846;51.528;5.076;2023-08-07T10:32:50;101178.59;;;16.31;65.01
60974;BME280;46846;51.528;5.076;2023-08-07T10:35:29;101181.91;;;16.36;64.99
60974;BME280;46846;51.528;5.076;2023-08-07T10:38:05;101177.22;;;16.39;64.77
60974;BME280;46846;51.528;5.076;2023-08-07T10:40:31;101185.81;;;16.46;64.25
60974;BME280;46846;51.528;5.076;2023-08-07T10:42:58;101188.69;;;16.43;64.75
60974;BME280;46846;51.528;5.076;2023-08-07T10:45:24;101188.34;;;16.49;63.35
60974;BME280;46846;51.528;5.076;2023-08-07T10:48:11;101192.69;;;16.52;64.41
60974;BME280;46846;51.528;5.076;2023-08-07T10:50:56;101187.00;;;16.58;64.06
60974;BME280;46846;51.528;5.076;2023-08-07T10:55:53;101190.28;;;16.63;63.88
60974;BME280;46846;51.528;5.076;2023-08-07T10:58:29;101195.84;;;16.60;64.15
60974;BME280;46846;51.528;5.076;2023-08-07T11:01:17;101203.63;;;16.65;64.50
60974;BME280;46846;51.528;5.076;2023-08-07T11:03:54;101186.38;;;16.69;63.95
60974;BME280;46846;51.528;5.076;2023-08-07T11:06:28;101194.38;;;16.71;64.22
60974;BME280;46846;51.528;5.076;2023-08-07T11:08:56;101200.28;;;16.77;64.05
60974;BME280;46846;51.528;5.076;2023-08-07T11:11:21;101195.75;;;16.78;63.84
60974;BME280;46846;51.528;5.076;2023-08-07T11:13:47;101202.97;;;16.77;64.50
60974;BME280;46846;51.528;5.076;2023-08-07T11:16:13;101189.44;;;16.79;63.86
60974;BME280;46846;51.528;5.076;2023-08-07T11:18:38;101194.72;;;16.80;64.28
60974;BME280;46846;51.528;5.076;2023-08-07T11:21:08;101190.94;;;16.85;63.89
60974;BME280;46846;51.528;5.076;2023-08-07T11:23:33;101184.69;;;16.84;62.68
60974;BME280;46846;51.528;5.076;2023-08-07T11:26:00;101191.38;;;16.93;61.30
60974;BME280;46846;51.528;5.076;2023-08-07T11:28:28;101184.09;;;16.95;63.93
60974;BME280;46846;51.528;5.076;2023-08-07T11:30:56;101195.47;;;17.00;63.40
60974;BME280;46846;51.528;5.076;2023-08-07T11:33:23;101183.59;;;17.04;63.46
60974;BME280;46846;51.528;5.076;2023-08-07T11:35:49;101202.50;;;17.03;63.58
60974;BME280;46846;51.528;5.076;2023-08-07T11:38:39;101179.09;;;17.05;63.54
60974;BME280;46846;51.528;5.076;2023-08-07T11:41:07;101202.72;;;16.98;63.71
60974;BME280;46846;51.528;5.076;2023-08-07T11:43:34;101199.81;;;17.03;63.73
60974;BME280;46846;51.528;5.076;2023-08-07T11:46:04;101209.44;;;17.07;63.68
60974;BME280;46846;51.528;5.076;2023-08-07T11:48:31;101209.38;;;17.08;63.78
60974;BME280;46846;51.528;5.076;2023-08-07T11:50:58;101205.63;;;17.11;63.75
60974;BME280;46846;51.528;5.076;2023-08-07T11:53:29;101206.41;;;17.13;63.74
60974;BME280;46846;51.528;5.076;2023-08-07T11:56:07;101205.38;;;17.16;63.70
60974;BME280;46846;51.528;5.076;2023-08-07T11:58:39;101198.16;;;17.16;63.96
60974;BME280;46846;51.528;5.076;2023-08-07T12:01:08;101198.09;;;17.18;63.59
60974;BME280;46846;51.528;5.076;2023-08-07T12:03:36;101199.53;;;17.24;63.04
60974;BME280;46846;51.528;5.076;2023-08-07T12:06:05;101195.47;;;17.16;63.64
60974;BME280;46846;51.528;5.076;2023-08-07T12:08:41;101188.03;;;17.21;63.65
60974;BME280;46846;51.528;5.076;2023-08-07T12:11:09;101195.41;;;17.18;64.05
60974;BME280;46846;51.528;5.076;2023-08-07T12:13:40;101212.22;;;17.21;63.40
60974;BME280;46846;51.528;5.076;2023-08-07T12:16:06;101206.44;;;17.29;62.91
60974;BME280;46846;51.528;5.076;2023-08-07T12:18:33;101211.25;;;17.22;63.47
60974;BME280;46846;51.528;5.076;2023-08-07T12:21:02;101214.72;;;17.25;63.60
60974;BME280;46846;51.528;5.076;2023-08-07T12:23:29;101213.94;;;17.22;63.85
60974;BME280;46846;51.528;5.076;2023-08-07T12:25:54;101200.97;;;17.15;64.05
60974;BME280;46846;51.528;5.076;2023-08-07T12:28:20;101211.44;;;17.19;63.97
60974;BME280;46846;51.528;5.076;2023-08-07T12:30:47;101216.56;;;17.24;64.03
60974;BME280;46846;51.528;5.076;2023-08-07T12:33:13;101208.31;;;17.27;63.84
60974;BME280;46846;51.528;5.076;2023-08-07T12:35:39;101209.13;;;17.29;63.85
60974;BME280;46846;51.528;5.076;2023-08-07T12:38:04;101214.50;;;17.29;63.87
60974;BME280;46846;51.528;5.076;2023-08-07T12:40:33;101208.91;;;17.32;64.06
60974;BME280;46846;51.528;5.076;2023-08-07T12:43:01;101217.06;;;17.31;63.88
60974;BME280;46846;51.528;5.076;2023-08-07T12:45:26;101215.19;;;17.33;63.97
60974;BME280;46846;51.528;5.076;2023-08-07T12:47:51;101220.63;;;17.31;64.17
60974;BME280;46846;51.528;5.076;2023-08-07T12:50:17;101210.22;;;17.25;64.42
60974;BME280;46846;51.528;5.076;2023-08-07T12:52:43;101212.31;;;17.20;64.60
60974;BME280;46846;51.528;5.076;2023-08-07T12:55:08;101204.78;;;17.27;64.32
60974;BME280;46846;51.528;5.076;2023-08-07T12:57:34;101201.53;;;17.20;64.71